sensor_id;sensor_type;location;lat;lon;timestamp;pressure;altitude;pressure_sealevel;temperature
11321;BMP180;5715;48.234;14.320;2023-11-22T00:02:43;98516.00;;;15.40
11321;BMP180;5715;48.234;14.320;2023-11-22T00:05:30;98521.00;;;15.30
11321;BMP180;5715;48.234;14.320;2023-11-22T00:08:18;98530.00;;;15.20
11321;BMP180;5715;48.234;14.320;2023-11-22T00:11:06;98540.00;;;15.30
11321;BMP180;5715;48.234;14.320;2023-11-22T00:13:53;98544.00;;;15.20
11321;BMP180;5715;48.234;14.320;2023-11-22T00:16:44;98545.00;;;15.20
11321;BMP180;5715;48.234;14.320;2023-11-22T00:19:32;98550.00;;;15.20
11321;BMP180;5715;48.234;14.320;2023-11-22T00:22:21;98551.00;;;15.30
11321;BMP180;5715;48.234;14.320;2023-11-22T00:25:08;98553.00;;;15.20
11321;BMP180;5715;48.234;14.320;2023-11-22T00:28:01;98554.00;;;15.20
11321;BMP180;5715;48.234;14.320;2023-11-22T00:30:48;98552.00;;;15.20
11321;BMP180;5715;48.234;14.320;2023-11-22T00:33:36;98558.00;;;15.20
11321;BMP180;5715;48.234;14.320;2023-11-22T00:36:23;98553.00;;;15.30
11321;BMP180;5715;48.234;14.320;2023-11-22T00:39:11;98557.00;;;15.30
11321;BMP180;5715;48.234;14.320;2023-11-22T00:42:00;98561.00;;;15.30
11321;BMP180;5715;48.234;14.320;2023-11-22T00:44:48;98570.00;;;15.30
11321;BMP180;5715;48.234;14.320;2023-11-22T00:47:36;98572.00;;;15.40
11321;BMP180;5715;48.234;14.320;2023-11-22T00:50:24;98580.00;;;15.40
11321;BMP180;5715;48.234;14.320;2023-11-22T00:53:12;98580.00;;;15.60
11321;BMP180;5715;48.234;14.320;2023-11-22T00:55:59;98581.00;;;15.40
11321;BMP180;5715;48.234;14.320;2023-11-22T00:58:47;98584.00;;;15.00
11321;BMP180;5715;48.234;14.320;2023-11-22T01:01:37;98579.00;;;15.20
11321;BMP180;5715;48.234;14.320;2023-11-22T01:04:24;98574.00;;;14.80
11321;BMP180;5715;48.234;14.320;2023-11-22T01:07:12;98582.00;;;14.80
11321;BMP180;5715;48.234;14.320;2023-11-22T01:09:59;98574.00;;;14.40
11321;BMP180;5715;48.234;14.320;2023-11-22T01:12:47;98578.00;;;14.10
11321;BMP180;5715;48.234;14.320;2023-11-22T01:15:35;98577.00;;;13.80
11321;BMP180;5715;48.234;14.320;2023-11-22T01:18:22;98582.00;;;13.90
11321;BMP180;5715;48.234;14.320;2023-11-22T01:21:10;98578.00;;;13.90
11321;BMP180;5715;48.234;14.320;2023-11-22T01:23:58;98577.00;;;13.80
11321;BMP180;5715;48.234;14.320;2023-11-22T01:26:46;98579.00;;;13.90
11321;BMP180;5715;48.234;14.320;2023-11-22T01:29:33;98574.00;;;14.00
11321;BMP180;5715;48.234;14.320;2023-11-22T01:32:22;98576.00;;;13.80
11321;BMP180;5715;48.234;14.320;2023-11-22T01:35:09;98587.00;;;14.20
11321;BMP180;5715;48.234;14.320;2023-11-22T01:37:57;98585.00;;;14.20
11321;BMP180;5715;48.234;14.320;2023-11-22T01:40:46;98598.00;;;14.60
11321;BMP180;5715;48.234;14.320;2023-11-22T01:43:34;98591.00;;;14.70
11321;BMP180;5715;48.234;14.320;2023-11-22T01:46:24;98598.00;;;14.30
11321;BMP180;5715;48.234;14.320;2023-11-22T01:49:13;98590.00;;;14.00
11321;BMP180;5715;48.234;14.320;2023-11-22T01:52:03;98595.00;;;14.00
11321;BMP180;5715;48.234;14.320;2023-11-22T01:54:51;98597.00;;;13.90
11321;BMP180;5715;48.234;14.320;2023-11-22T01:57:39;98597.00;;;13.50
11321;BMP180;5715;48.234;14.320;2023-11-22T02:00:36;98596.00;;;13.40
11321;BMP180;5715;48.234;14.320;2023-11-22T02:03:29;98600.00;;;13.60
11321;BMP180;5715;48.234;14.320;2023-11-22T02:06:18;98603.00;;;13.90
11321;BMP180;5715;48.234;14.320;2023-11-22T02:09:06;98597.00;;;14.10
11321;BMP180;5715;48.234;14.320;2023-11-22T02:11:55;98614.00;;;14.40
11321;BMP180;5715;48.234;14.320;2023-11-22T02:14:43;98624.00;;;14.20
11321;BMP180;5715;48.234;14.320;2023-11-22T02:17:30;98627.00;;;14.00
11321;BMP180;5715;48.234;14.320;2023-11-22T02:20:18;98630.00;;;13.90
11321;BMP180;5715;48.234;14.320;2023-11-22T02:23:10;98641.00;;;13.40
11321;BMP180;5715;48.234;14.320;2023-11-22T02:25:59;98637.00;;;13.40
11321;BMP180;5715;48.234;14.320;2023-11-22T02:28:46;98630.00;;;13.30
11321;BMP180;5715;48.234;14.320;2023-11-22T02:31:35;98644.00;;;13.40
11321;BMP180;5715;48.234;14.320;2023-11-22T02:34:23;98653.00;;;13.50
11321;BMP180;5715;48.234;14.320;2023-11-22T02:37:11;98643.00;;;13.60
11321;BMP180;5715;48.234;14.320;2023-11-22T02:40:19;98654.00;;;13.30
11321;BMP180;5715;48.234;14.320;2023-11-22T02:43:06;98662.00;;;13.30
11321;BMP180;5715;48.234;14.320;2023-11-22T02:45:56;98652.00;;;13.20
11321;BMP180;5715;48.234;14.320;2023-11-22T02:48:44;98654.00;;;13.80
11321;BMP180;5715;48.234;14.320;2023-11-22T02:51:32;98655.00;;;13.90
11321;BMP180;5715;48.234;14.320;2023-11-22T02:54:20;98665.00;;;13.80
11321;BMP180;5715;48.234;14.320;2023-11-22T02:57:07;98674.00;;;13.30
11321;BMP180;5715;48.234;14.320;2023-11-22T02:59:55;98672.00;;;13.10
11321;BMP180;5715;48.234;14.320;2023-11-22T03:02:42;98673.00;;;13.60
11321;BMP180;5715;48.234;14.320;2023-11-22T03:05:30;98681.00;;;13.90
11321;BMP180;5715;48.234;14.320;2023-11-22T03:08:18;98684.00;;;13.70
11321;BMP180;5715;48.234;14.320;2023-11-22T03:11:05;98687.00;;;13.70
11321;BMP180;5715;48.234;14.320;2023-11-22T03:13:54;98699.00;;;13.30
11321;BMP180;5715;48.234;14.320;2023-11-22T03:16:42;98698.00;;;13.40
11321;BMP180;5715;48.234;14.320;2023-11-22T03:19:30;98705.00;;;13.50
11321;BMP180;5715;48.234;14.320;2023-11-22T03:22:17;98710.00;;;13.60
11321;BMP180;5715;48.234;14.320;2023-11-22T03:25:05;98719.00;;;12.80
11321;BMP180;5715;48.234;14.320;2023-11-22T03:27:57;98728.00;;;12.70
11321;BMP180;5715;48.234;14.320;2023-11-22T03:30:45;98726.00;;;13.20
11321;BMP180;5715;48.234;14.320;2023-11-22T03:33:32;98735.00;;;13.10
11321;BMP180;5715;48.234;14.320;2023-11-22T03:36:21;98742.00;;;13.60
11321;BMP180;5715;48.234;14.320;2023-11-22T03:39:10;98751.00;;;13.40
11321;BMP180;5715;48.234;14.320;2023-11-22T03:41:57;98753.00;;;13.50
11321;BMP180;5715;48.234;14.320;2023-11-22T03:44:45;98751.00;;;13.60
11321;BMP180;5715;48.234;14.320;2023-11-22T03:47:33;98754.00;;;13.50
11321;BMP180;5715;48.234;14.320;2023-11-22T03:50:21;98751.00;;;13.50
11321;BMP180;5715;48.234;14.320;2023-11-22T03:53:08;98751.00;;;13.30
11321;BMP180;5715;48.234;14.320;2023-11-22T03:55:56;98747.00;;;13.40
11321;BMP180;5715;48.234;14.320;2023-11-22T03:58:44;98754.00;;;13.20
11321;BMP180;5715;48.234;14.320;2023-11-22T04:01:31;98752.00;;;12.90
11321;BMP180;5715;48.234;14.320;2023-11-22T04:04:20;98758.00;;;12.80
11321;BMP180;5715;48.234;14.320;2023-11-22T04:07:08;98764.00;;;12.60
11321;BMP180;5715;48.234;14.320;2023-11-22T04:09:55;98765.00;;;12.60
11321;BMP180;5715;48.234;14.320;2023-11-22T04:12:43;98763.00;;;13.10
11321;BMP180;5715;48.234;14.320;2023-11-22T04:15:30;98762.00;;;13.20
11321;BMP180;5715;48.234;14.320;2023-11-22T04:18:19;98775.00;;;12.40
11321;BMP180;5715;48.234;14.320;2023-11-22T04:21:08;98774.00;;;12.90
11321;BMP180;5715;48.234;14.320;2023-11-22T04:23:56;98779.00;;;12.90
11321;BMP180;5715;48.234;14.320;2023-11-22T04:26:45;98779.00;;;13.00
11321;BMP180;5715;48.234;14.320;2023-11-22T04:29:35;98802.00;;;13.00
11321;BMP180;5715;48.234;14.320;2023-11-22T04:32:22;98801.00;;;12.90
11321;BMP180;5715;48.234;14.320;2023-11-22T04:35:10;98800.00;;;12.90
11321;BMP180;5715;48.234;14.320;2023-11-22T04:37:58;98810.00;;;13.00
11321;BMP180;5715;48.234;14.320;2023-11-22T04:40:50;98808.00;;;13.10
11321;BMP180;5715;48.234;14.320;2023-11-22T04:43:42;98817.00;;;12.50
11321;BMP180;5715;48.234;14.320;2023-11-22T04:46:59;98821.00;;;12.80
11321;BMP180;5715;48.234;14.320;2023-11-22T04:49:50;98821.00;;;12.90
11321;BMP180;5715;48.234;14.320;2023-11-22T04:52:52;98829.00;;;13.00
11321;BMP180;5715;48.234;14.320;2023-11-22T04:55:41;98840.00;;;13.00
11321;BMP180;5715;48.234;14.320;2023-11-22T04:58:33;98841.00;;;12.90
11321;BMP180;5715;48.234;14.320;2023-11-22T05:01:51;98843.00;;;12.70
11321;BMP180;5715;48.234;14.320;2023-11-22T05:05:02;98850.00;;;12.80
11321;BMP180;5715;48.234;14.320;2023-11-22T05:07:49;98857.00;;;12.50
11321;BMP180;5715;48.234;14.320;2023-11-22T05:10:37;98854.00;;;12.70
11321;BMP180;5715;48.234;14.320;2023-11-22T05:13:25;98865.00;;;12.80
11321;BMP180;5715;48.234;14.320;2023-11-22T05:16:13;98869.00;;;12.70
11321;BMP180;5715;48.234;14.320;2023-11-22T05:19:00;98866.00;;;12.60
11321;BMP180;5715;48.234;14.320;2023-11-22T05:21:48;98874.00;;;12.40
11321;BMP180;5715;48.234;14.320;2023-11-22T05:24:35;98885.00;;;12.40
11321;BMP180;5715;48.234;14.320;2023-11-22T05:27:25;98893.00;;;12.50
11321;BMP180;5715;48.234;14.320;2023-11-22T05:30:13;98891.00;;;12.40
11321;BMP180;5715;48.234;14.320;2023-11-22T05:33:02;98899.00;;;12.50
11321;BMP180;5715;48.234;14.320;2023-11-22T05:35:50;98896.00;;;12.50
11321;BMP180;5715;48.234;14.320;2023-11-22T05:38:38;98901.00;;;12.30
11321;BMP180;5715;48.234;14.320;2023-11-22T05:41:26;98909.00;;;12.60
11321;BMP180;5715;48.234;14.320;2023-11-22T05:44:14;98904.00;;;12.40
11321;BMP180;5715;48.234;14.320;2023-11-22T05:47:02;98907.00;;;12.50
11321;BMP180;5715;48.234;14.320;2023-11-22T05:49:50;98908.00;;;12.40
11321;BMP180;5715;48.234;14.320;2023-11-22T05:52:38;98904.00;;;12.40
11321;BMP180;5715;48.234;14.320;2023-11-22T05:55:26;98907.00;;;12.40
11321;BMP180;5715;48.234;14.320;2023-11-22T05:58:15;98909.00;;;12.40
11321;BMP180;5715;48.234;14.320;2023-11-22T06:01:06;98921.00;;;12.50
11321;BMP180;5715;48.234;14.320;2023-11-22T06:03:54;98931.00;;;12.50
11321;BMP180;5715;48.234;14.320;2023-11-22T06:06:41;98929.00;;;12.10
11321;BMP180;5715;48.234;14.320;2023-11-22T06:09:29;98947.00;;;12.20
11321;BMP180;5715;48.234;14.320;2023-11-22T06:12:17;98951.00;;;12.30
11321;BMP180;5715;48.234;14.320;2023-11-22T06:15:05;98956.00;;;12.30
11321;BMP180;5715;48.234;14.320;2023-11-22T06:17:52;98962.00;;;12.60
11321;BMP180;5715;48.234;14.320;2023-11-22T06:20:41;98964.00;;;12.70
11321;BMP180;5715;48.234;14.320;2023-11-22T06:23:29;98979.00;;;12.30
11321;BMP180;5715;48.234;14.320;2023-11-22T06:26:16;98993.00;;;12.30
11321;BMP180;5715;48.234;14.320;2023-11-22T06:29:04;98984.00;;;12.40
11321;BMP180;5715;48.234;14.320;2023-11-22T06:31:51;98991.00;;;12.40
11321;BMP180;5715;48.234;14.320;2023-11-22T06:34:39;98999.00;;;12.30
11321;BMP180;5715;48.234;14.320;2023-11-22T06:37:27;99005.00;;;12.10
11321;BMP180;5715;48.234;14.320;2023-11-22T06:40:14;99008.00;;;12.10
11321;BMP180;5715;48.234;14.320;2023-11-22T06:43:04;99013.00;;;12.30
11321;BMP180;5715;48.234;14.320;2023-11-22T06:45:51;99019.00;;;12.00
11321;BMP180;5715;48.234;14.320;2023-11-22T06:48:39;99021.00;;;11.60
11321;BMP180;5715;48.234;14.320;2023-11-22T06:51:27;99032.00;;;11.70
11321;BMP180;5715;48.234;14.320;2023-11-22T06:54:14;99028.00;;;11.70
11321;BMP180;5715;48.234;14.320;2023-11-22T06:57:05;99047.00;;;11.80
11321;BMP180;5715;48.234;14.320;2023-11-22T06:59:52;99047.00;;;12.00
11321;BMP180;5715;48.234;14.320;2023-11-22T07:02:40;99054.00;;;12.10
11321;BMP180;5715;48.234;14.320;2023-11-22T07:05:28;99058.00;;;11.90
11321;BMP180;5715;48.234;14.320;2023-11-22T07:08:17;99062.00;;;11.80
11321;BMP180;5715;48.234;14.320;2023-11-22T07:11:05;99069.00;;;11.60
11321;BMP180;5715;48.234;14.320;2023-11-22T07:13:57;99081.00;;;11.90
11321;BMP180;5715;48.234;14.320;2023-11-22T07:16:45;99087.00;;;11.70
11321;BMP180;5715;48.234;14.320;2023-11-22T07:19:33;99087.00;;;11.60
11321;BMP180;5715;48.234;14.320;2023-11-22T07:22:25;99093.00;;;11.20
11321;BMP180;5715;48.234;14.320;2023-11-22T07:25:14;99101.00;;;11.60
11321;BMP180;5715;48.234;14.320;2023-11-22T07:28:07;99108.00;;;11.70
11321;BMP180;5715;48.234;14.320;2023-11-22T07:30:56;99114.00;;;11.60
11321;BMP180;5715;48.234;14.320;2023-11-22T07:33:44;99127.00;;;11.80
11321;BMP180;5715;48.234;14.320;2023-11-22T07:36:31;99136.00;;;12.00
11321;BMP180;5715;48.234;14.320;2023-11-22T07:39:19;99141.00;;;11.80
11321;BMP180;5715;48.234;14.320;2023-11-22T07:42:07;99138.00;;;11.70
11321;BMP180;5715;48.234;14.320;2023-11-22T07:44:55;99134.00;;;11.50
11321;BMP180;5715;48.234;14.320;2023-11-22T07:47:43;99139.00;;;11.60
11321;BMP180;5715;48.234;14.320;2023-11-22T07:50:32;99139.00;;;11.80
11321;BMP180;5715;48.234;14.320;2023-11-22T07:53:19;99141.00;;;11.80
11321;BMP180;5715;48.234;14.320;2023-11-22T07:56:08;99132.00;;;11.70
11321;BMP180;5715;48.234;14.320;2023-11-22T07:58:56;99140.00;;;11.70
11321;BMP180;5715;48.234;14.320;2023-11-22T08:01:45;99145.00;;;11.80
11321;BMP180;5715;48.234;14.320;2023-11-22T08:04:34;99147.00;;;12.00
11321;BMP180;5715;48.234;14.320;2023-11-22T08:07:22;99145.00;;;11.90
11321;BMP180;5715;48.234;14.320;2023-11-22T08:10:10;99147.00;;;11.90
11321;BMP180;5715;48.234;14.320;2023-11-22T08:13:06;99148.00;;;12.00
11321;BMP180;5715;48.234;14.320;2023-11-22T08:15:54;99150.00;;;12.00
11321;BMP180;5715;48.234;14.320;2023-11-22T08:18:41;99160.00;;;11.50
11321;BMP180;5715;48.234;14.320;2023-11-22T08:21:31;99169.00;;;11.30
11321;BMP180;5715;48.234;14.320;2023-11-22T08:24:19;99161.00;;;11.70
11321;BMP180;5715;48.234;14.320;2023-11-22T08:27:07;99164.00;;;11.40
11321;BMP180;5715;48.234;14.320;2023-11-22T08:29:55;99174.00;;;11.10
11321;BMP180;5715;48.234;14.320;2023-11-22T08:32:43;99181.00;;;11.20
11321;BMP180;5715;48.234;14.320;2023-11-22T08:35:32;99177.00;;;11.20
11321;BMP180;5715;48.234;14.320;2023-11-22T08:38:20;99184.00;;;11.60
11321;BMP180;5715;48.234;14.320;2023-11-22T08:41:08;99183.00;;;11.50
11321;BMP180;5715;48.234;14.320;2023-11-22T08:43:59;99183.00;;;11.70
11321;BMP180;5715;48.234;14.320;2023-11-22T08:46:47;99193.00;;;11.40
11321;BMP180;5715;48.234;14.320;2023-11-22T08:49:35;99207.00;;;11.70
11321;BMP180;5715;48.234;14.320;2023-11-22T08:52:22;99204.00;;;11.30
11321;BMP180;5715;48.234;14.320;2023-11-22T08:55:11;99202.00;;;11.60
11321;BMP180;5715;48.234;14.320;2023-11-22T08:57:59;99212.00;;;10.90
11321;BMP180;5715;48.234;14.320;2023-11-22T09:00:47;99206.00;;;11.70
11321;BMP180;5715;48.234;14.320;2023-11-22T09:03:34;99231.00;;;11.40
11321;BMP180;5715;48.234;14.320;2023-11-22T09:06:22;99243.00;;;11.20
11321;BMP180;5715;48.234;14.320;2023-11-22T09:09:11;99248.00;;;11.00
11321;BMP180;5715;48.234;14.320;2023-11-22T09:12:02;99261.00;;;11.10
11321;BMP180;5715;48.234;14.320;2023-11-22T09:14:50;99267.00;;;11.20
11321;BMP180;5715;48.234;14.320;2023-11-22T09:17:38;99270.00;;;10.70
11321;BMP180;5715;48.234;14.320;2023-11-22T09:20:30;99289.00;;;10.80
11321;BMP180;5715;48.234;14.320;2023-11-22T09:23:18;99292.00;;;10.20
11321;BMP180;5715;48.234;14.320;2023-11-22T09:26:06;99298.00;;;11.00
11321;BMP180;5715;48.234;14.320;2023-11-22T09:28:53;99293.00;;;11.40
11321;BMP180;5715;48.234;14.320;2023-11-22T09:31:41;99291.00;;;11.30
11321;BMP180;5715;48.234;14.320;2023-11-22T09:34:34;99297.00;;;11.60
11321;BMP180;5715;48.234;14.320;2023-11-22T09:37:22;99290.00;;;11.30
11321;BMP180;5715;48.234;14.320;2023-11-22T09:40:10;99295.00;;;11.10
11321;BMP180;5715;48.234;14.320;2023-11-22T09:43:00;99287.00;;;11.50
11321;BMP180;5715;48.234;14.320;2023-11-22T09:45:50;99265.00;;;11.70
11321;BMP180;5715;48.234;14.320;2023-11-22T09:48:43;99277.00;;;11.90
11321;BMP180;5715;48.234;14.320;2023-11-22T09:51:37;99261.00;;;11.90
11321;BMP180;5715;48.234;14.320;2023-11-22T09:54:28;99246.00;;;12.10
11321;BMP180;5715;48.234;14.320;2023-11-22T09:57:19;99262.00;;;12.20
11321;BMP180;5715;48.234;14.320;2023-11-22T10:00:10;99288.00;;;12.20
11321;BMP180;5715;48.234;14.320;2023-11-22T10:03:02;99295.00;;;11.70
11321;BMP180;5715;48.234;14.320;2023-11-22T10:05:51;99306.00;;;11.20
11321;BMP180;5715;48.234;14.320;2023-11-22T10:08:39;99304.00;;;11.60
11321;BMP180;5715;48.234;14.320;2023-11-22T10:11:28;99293.00;;;11.20
11321;BMP180;5715;48.234;14.320;2023-11-22T10:14:24;99291.00;;;12.10
11321;BMP180;5715;48.234;14.320;2023-11-22T10:17:14;99292.00;;;11.70
11321;BMP180;5715;48.234;14.320;2023-11-22T10:20:04;99299.00;;;12.30
11321;BMP180;5715;48.234;14.320;2023-11-22T10:22:58;99306.00;;;11.90
11321;BMP180;5715;48.234;14.320;2023-11-22T10:25:46;99304.00;;;12.40
11321;BMP180;5715;48.234;14.320;2023-11-22T10:28:39;99312.00;;;12.70
11321;BMP180;5715;48.234;14.320;2023-11-22T10:31:27;99322.00;;;12.10
11321;BMP180;5715;48.234;14.320;2023-11-22T10:34:19;99314.00;;;12.30
11321;BMP180;5715;48.234;14.320;2023-11-22T10:37:06;99311.00;;;12.30
11321;BMP180;5715;48.234;14.320;2023-11-22T10:39:57;99320.00;;;12.50
11321;BMP180;5715;48.234;14.320;2023-11-22T10:42:47;99323.00;;;12.50
11321;BMP180;5715;48.234;14.320;2023-11-22T10:45:42;99319.00;;;11.70
11321;BMP180;5715;48.234;14.320;2023-11-22T10:48:36;99325.00;;;12.60
11321;BMP180;5715;48.234;14.320;2023-11-22T10:51:30;99318.00;;;11.90
11321;BMP180;5715;48.234;14.320;2023-11-22T10:54:20;99309.00;;;11.30
11321;BMP180;5715;48.234;14.320;2023-11-22T10:57:09;99324.00;;;11.30
11321;BMP180;5715;48.234;14.320;2023-11-22T11:00:04;99319.00;;;11.60
11321;BMP180;5715;48.234;14.320;2023-11-22T11:03:11;99326.00;;;11.40
11321;BMP180;5715;48.234;14.320;2023-11-22T11:06:03;99340.00;;;11.40
11321;BMP180;5715;48.234;14.320;2023-11-22T11:08:53;99348.00;;;11.10
11321;BMP180;5715;48.234;14.320;2023-11-22T11:11:43;99352.00;;;10.80
11321;BMP180;5715;48.234;14.320;2023-11-22T11:14:32;99350.00;;;11.30
11321;BMP180;5715;48.234;14.320;2023-11-22T11:17:20;99359.00;;;11.40
11321;BMP180;5715;48.234;14.320;2023-11-22T11:20:11;99361.00;;;11.30
11321;BMP180;5715;48.234;14.320;2023-11-22T11:23:04;99372.00;;;11.20
11321;BMP180;5715;48.234;14.320;2023-11-22T11:25:59;99379.00;;;11.10
11321;BMP180;5715;48.234;14.320;2023-11-22T11:28:55;99379.00;;;11.40
11321;BMP180;5715;48.234;14.320;2023-11-22T11:31:45;99379.00;;;11.40
11321;BMP180;5715;48.234;14.320;2023-11-22T11:34:47;99377.00;;;11.00
11321;BMP180;5715;48.234;14.320;2023-11-22T11:37:37;99381.00;;;11.30
11321;BMP180;5715;48.234;14.320;2023-11-22T11:40:46;99382.00;;;12.00
11321;BMP180;5715;48.234;14.320;2023-11-22T11:43:46;99381.00;;;11.70
11321;BMP180;5715;48.234;14.320;2023-11-22T11:46:34;99377.00;;;12.10
11321;BMP180;5715;48.234;14.320;2023-11-22T11:49:22;99380.00;;;12.20
11321;BMP180;5715;48.234;14.320;2023-11-22T11:52:10;99387.00;;;12.70
11321;BMP180;5715;48.234;14.320;2023-11-22T11:54:58;99389.00;;;12.80
11321;BMP180;5715;48.234;14.320;2023-11-22T11:57:47;99393.00;;;12.40
11321;BMP180;5715;48.234;14.320;2023-11-22T12:00:38;99386.00;;;13.10
11321;BMP180;5715;48.234;14.320;2023-11-22T12:03:28;99383.00;;;13.30
11321;BMP180;5715;48.234;14.320;2023-11-22T12:06:18;99385.00;;;13.50
11321;BMP180;5715;48.234;14.320;2023-11-22T12:09:07;99375.00;;;13.60
11321;BMP180;5715;48.234;14.320;2023-11-22T12:11:55;99391.00;;;13.70
11321;BMP180;5715;48.234;14.320;2023-11-22T12:14:44;99398.00;;;13.50
11321;BMP180;5715;48.234;14.320;2023-11-22T12:17:32;99390.00;;;13.60
11321;BMP180;5715;48.234;14.320;2023-11-22T12:20:21;99388.00;;;13.20
11321;BMP180;5715;48.234;14.320;2023-11-22T12:23:09;99385.00;;;13.30
11321;BMP180;5715;48.234;14.320;2023-11-22T12:26:01;99381.00;;;13.30
11321;BMP180;5715;48.234;14.320;2023-11-22T12:28:49;99389.00;;;13.20
11321;BMP180;5715;48.234;14.320;2023-11-22T12:31:52;99389.00;;;13.50
11321;BMP180;5715;48.234;14.320;2023-11-22T12:34:44;99403.00;;;13.80
11321;BMP180;5715;48.234;14.320;2023-11-22T12:37:32;99391.00;;;13.70
11321;BMP180;5715;48.234;14.320;2023-11-22T12:40:21;99384.00;;;13.80
11321;BMP180;5715;48.234;14.320;2023-11-22T12:43:08;99372.00;;;13.90
11321;BMP180;5715;48.234;14.320;2023-11-22T12:46:05;99361.00;;;14.00
11321;BMP180;5715;48.234;14.320;2023-11-22T12:49:06;99360.00;;;13.90
11321;BMP180;5715;48.234;14.320;2023-11-22T12:51:56;99354.00;;;14.00
11321;BMP180;5715;48.234;14.320;2023-11-22T12:54:47;99359.00;;;13.80
11321;BMP180;5715;48.234;14.320;2023-11-22T12:57:35;99363.00;;;13.80
11321;BMP180;5715;48.234;14.320;2023-11-22T13:00:22;99365.00;;;13.90
11321;BMP180;5715;48.234;14.320;2023-11-22T13:03:11;99367.00;;;13.50
11321;BMP180;5715;48.234;14.320;2023-11-22T13:05:59;99360.00;;;13.10
11321;BMP180;5715;48.234;14.320;2023-11-22T13:08:47;99359.00;;;13.70
11321;BMP180;5715;48.234;14.320;2023-11-22T13:11:35;99362.00;;;13.90
11321;BMP180;5715;48.234;14.320;2023-11-22T13:14:22;99372.00;;;13.80
11321;BMP180;5715;48.234;14.320;2023-11-22T13:17:10;99370.00;;;13.80
11321;BMP180;5715;48.234;14.320;2023-11-22T13:19:58;99369.00;;;13.90
11321;BMP180;5715;48.234;14.320;2023-11-22T13:22:47;99377.00;;;13.70
11321;BMP180;5715;48.234;14.320;2023-11-22T13:25:35;99381.00;;;13.50
11321;BMP180;5715;48.234;14.320;2023-11-22T13:28:23;99387.00;;;13.60
11321;BMP180;5715;48.234;14.320;2023-11-22T13:31:12;99392.00;;;13.10
11321;BMP180;5715;48.234;14.320;2023-11-22T13:34:02;99385.00;;;13.20
11321;BMP180;5715;48.234;14.320;2023-11-22T13:36:49;99399.00;;;13.30
11321;BMP180;5715;48.234;14.320;2023-11-22T13:39:37;99400.00;;;13.40
11321;BMP180;5715;48.234;14.320;2023-11-22T13:42:26;99399.00;;;13.00
11321;BMP180;5715;48.234;14.320;2023-11-22T13:45:15;99400.00;;;13.00
11321;BMP180;5715;48.234;14.320;2023-11-22T13:48:04;99405.00;;;13.10
11321;BMP180;5715;48.234;14.320;2023-11-22T13:50:54;99403.00;;;13.10
11321;BMP180;5715;48.234;14.320;2023-11-22T13:53:42;99396.00;;;13.30
11321;BMP180;5715;48.234;14.320;2023-11-22T13:56:32;99396.00;;;13.10
11321;BMP180;5715;48.234;14.320;2023-11-22T13:59:19;99385.00;;;13.20
11321;BMP180;5715;48.234;14.320;2023-11-22T14:02:07;99395.00;;;13.10
11321;BMP180;5715;48.234;14.320;2023-11-22T14:04:55;99391.00;;;13.10
11321;BMP180;5715;48.234;14.320;2023-11-22T14:07:43;99394.00;;;13.20
11321;BMP180;5715;48.234;14.320;2023-11-22T14:10:31;99405.00;;;13.10
11321;BMP180;5715;48.234;14.320;2023-11-22T14:13:19;99404.00;;;13.00
11321;BMP180;5715;48.234;14.320;2023-11-22T14:16:09;99413.00;;;13.00
11321;BMP180;5715;48.234;14.320;2023-11-22T14:18:56;99406.00;;;12.80
11321;BMP180;5715;48.234;14.320;2023-11-22T14:21:45;99410.00;;;12.90
11321;BMP180;5715;48.234;14.320;2023-11-22T14:24:32;99411.00;;;12.80
11321;BMP180;5715;48.234;14.320;2023-11-22T14:27:24;99426.00;;;12.60
11321;BMP180;5715;48.234;14.320;2023-11-22T14:30:13;99439.00;;;12.50
11321;BMP180;5715;48.234;14.320;2023-11-22T14:33:01;99440.00;;;12.60
11321;BMP180;5715;48.234;14.320;2023-11-22T14:35:53;99455.00;;;11.60
11321;BMP180;5715;48.234;14.320;2023-11-22T14:38:44;99459.00;;;11.70
11321;BMP180;5715;48.234;14.320;2023-11-22T14:41:35;99469.00;;;11.90
11321;BMP180;5715;48.234;14.320;2023-11-22T14:44:22;99471.00;;;12.00
11321;BMP180;5715;48.234;14.320;2023-11-22T14:47:10;99473.00;;;12.30
11321;BMP180;5715;48.234;14.320;2023-11-22T14:50:08;99488.00;;;12.50
11321;BMP180;5715;48.234;14.320;2023-11-22T14:52:59;99488.00;;;12.60
11321;BMP180;5715;48.234;14.320;2023-11-22T14:55:47;99487.00;;;12.40
11321;BMP180;5715;48.234;14.320;2023-11-22T14:58:34;99482.00;;;12.40
11321;BMP180;5715;48.234;14.320;2023-11-22T15:01:22;99476.00;;;12.50
11321;BMP180;5715;48.234;14.320;2023-11-22T15:04:13;99474.00;;;12.50
11321;BMP180;5715;48.234;14.320;2023-11-22T15:07:04;99472.00;;;12.80
11321;BMP180;5715;48.234;14.320;2023-11-22T15:09:53;99474.00;;;12.90
11321;BMP180;5715;48.234;14.320;2023-11-22T15:12:41;99475.00;;;12.40
11321;BMP180;5715;48.234;14.320;2023-11-22T15:15:29;99467.00;;;12.50
11321;BMP180;5715;48.234;14.320;2023-11-22T15:18:17;99477.00;;;12.50
11321;BMP180;5715;48.234;14.320;2023-11-22T15:21:05;99483.00;;;12.50
11321;BMP180;5715;48.234;14.320;2023-11-22T15:23:53;99491.00;;;12.30
11321;BMP180;5715;48.234;14.320;2023-11-22T15:26:43;99490.00;;;12.50
11321;BMP180;5715;48.234;14.320;2023-11-22T15:29:30;99491.00;;;12.30
11321;BMP180;5715;48.234;14.320;2023-11-22T15:32:19;99496.00;;;12.30
11321;BMP180;5715;48.234;14.320;2023-11-22T15:35:07;99501.00;;;12.20
11321;BMP180;5715;48.234;14.320;2023-11-22T15:37:56;99507.00;;;12.20
11321;BMP180;5715;48.234;14.320;2023-11-22T15:40:44;99505.00;;;12.10
11321;BMP180;5715;48.234;14.320;2023-11-22T15:43:31;99500.00;;;12.20
11321;BMP180;5715;48.234;14.320;2023-11-22T15:46:19;99505.00;;;12.20
11321;BMP180;5715;48.234;14.320;2023-11-22T15:49:12;99499.00;;;12.20
11321;BMP180;5715;48.234;14.320;2023-11-22T15:52:01;99493.00;;;12.10
11321;BMP180;5715;48.234;14.320;2023-11-22T15:54:49;99503.00;;;12.20
11321;BMP180;5715;48.234;14.320;2023-11-22T15:57:37;99497.00;;;12.10
11321;BMP180;5715;48.234;14.320;2023-11-22T16:00:25;99486.00;;;12.10
11321;BMP180;5715;48.234;14.320;2023-11-22T16:03:13;99481.00;;;12.00
11321;BMP180;5715;48.234;14.320;2023-11-22T16:06:06;99487.00;;;12.20
11321;BMP180;5715;48.234;14.320;2023-11-22T16:08:56;99494.00;;;12.20
11321;BMP180;5715;48.234;14.320;2023-11-22T16:11:44;99506.00;;;12.20
11321;BMP180;5715;48.234;14.320;2023-11-22T16:14:33;99512.00;;;12.10
11321;BMP180;5715;48.234;14.320;2023-11-22T16:17:21;99507.00;;;12.10